Aurora, Illinois
Current Conditions -  °F | °C
As of 12:52 PM on Monday 20 Oct 2014 (Local Time) from KARR Reporting Station
Clear Clear  
Wind Chill: 64°   Ceiling: Unl
Heat Index: 64°   Visibility: 10mi
Dew Point: 47°   Wind: 15mph
Humidity: 54%   Direction: 340°NNW
Pressure: 29.86"   Gusts: NA
Location:  41.76°N, 88.31°W
Report Text: KARR 201752Z 34013KT 10SM CLR 18/08 A2986 RMK AO2 SLP110 T01780083 10183 20061 58002
Loading
Personal Weather Stations






























Interactive Weather Map
Tropical Storm Tracking
New forecast layout! Learn more

10-Day Weather Forecast

Advertisements
Track Severe Weather on mobile